createdAt,value
2019-01-18T09:23:36.440Z,81.93
2019-01-18T09:26:09.479Z,88.63
2019-01-18T09:28:43.578Z,82.87
2019-01-18T09:31:16.824Z,80.63
2019-01-18T09:33:49.670Z,72.87
2019-01-18T09:36:22.777Z,66.10
2019-01-18T09:38:55.665Z,78.80
2019-01-18T09:41:28.655Z,65.27
2019-01-18T09:44:02.913Z,70.93
2019-01-18T09:46:36.147Z,97.57
2019-01-18T09:49:09.253Z,66.70
2019-01-18T09:51:42.494Z,64.70
2019-01-18T09:54:15.782Z,56.57
2019-01-18T09:56:49.442Z,61.20
2019-01-18T09:59:22.438Z,60.87
2019-01-18T10:01:55.683Z,63.77
2019-01-18T10:04:28.655Z,58.47
2019-01-18T10:07:01.894Z,61.73
2019-01-18T10:09:34.813Z,64.20
2019-01-18T10:12:11.108Z,58.27
2019-01-18T10:14:44.828Z,59.67
2019-01-18T10:17:18.222Z,57.83
2019-01-18T10:19:52.575Z,81.10
2019-01-18T10:22:26.213Z,64.50
2019-01-18T10:24:59.675Z,64.97
2019-01-18T10:27:32.705Z,59.07
2019-01-18T10:30:06.932Z,55.50
2019-01-18T10:32:40.259Z,54.13
2019-01-18T10:35:13.621Z,51.80
2019-01-18T10:37:47.061Z,47.80
2019-01-18T10:40:20.409Z,46.80
2019-01-18T10:42:55.551Z,46.77
2019-01-18T10:45:29.131Z,48.80
2019-01-18T10:48:02.531Z,49.27
2019-01-18T10:50:37.110Z,44.40
2019-01-18T10:53:10.882Z,50.20
2019-01-18T10:55:43.907Z,59.37
2019-01-18T10:58:17.698Z,58.43
2019-01-18T11:01:07.032Z,54.63
2019-01-18T11:03:40.243Z,49.33
2019-01-18T11:06:13.667Z,48.53
2019-01-18T11:08:47.007Z,49.67
2019-01-18T11:11:21.827Z,46.23
2019-01-18T11:13:57.454Z,49.27
2019-01-18T11:16:30.710Z,53.33
2019-01-18T11:19:04.380Z,55.23
2019-01-18T11:21:37.588Z,61.07
2019-01-18T11:24:10.552Z,55.60
2019-01-18T11:26:43.387Z,54.97
2019-01-18T11:29:16.407Z,54.63
2019-01-18T11:31:49.567Z,48.70
2019-01-18T11:34:22.317Z,46.83
2019-01-18T11:36:57.349Z,47.33
2019-01-18T11:39:30.186Z,44.43
2019-01-18T11:42:05.306Z,36.40
2019-01-18T11:44:37.719Z,36.90
2019-01-18T11:47:11.033Z,34.23
2019-01-18T11:49:46.229Z,29.93
2019-01-18T11:52:19.520Z,34.70
2019-01-18T11:54:53.869Z,39.40
2019-01-18T11:57:26.842Z,45.63
2019-01-18T11:59:59.857Z,43.20
2019-01-18T12:02:33.466Z,37.63
2019-01-18T12:05:06.304Z,30.97
2019-01-18T12:07:39.012Z,37.13
2019-01-18T12:10:21.750Z,29.17
2019-01-18T12:12:54.500Z,31.67
2019-01-18T12:15:27.720Z,31.50
2019-01-18T12:18:01.027Z,36.13
2019-01-18T12:20:36.859Z,34.07
2019-01-18T12:23:10.279Z,33.57
2019-01-18T12:25:43.315Z,29.97
2019-01-18T12:28:16.717Z,31.47
2019-01-18T12:30:49.817Z,36.53
2019-01-18T12:33:22.995Z,34.63
2019-01-18T12:36:16.468Z,40.60
2019-01-18T12:38:49.571Z,41.80
2019-01-18T12:41:22.672Z,45.63
2019-01-18T12:43:57.565Z,49.00
2019-01-18T12:46:30.577Z,44.73
2019-01-18T12:49:04.073Z,46.53
2019-01-18T12:51:37.476Z,46.30
2019-01-18T12:54:10.683Z,43.73
2019-01-18T12:56:43.839Z,40.17
2019-01-18T12:59:17.132Z,36.40
2019-01-18T13:01:50.288Z,39.07
2019-01-18T13:04:23.471Z,43.83
2019-01-18T13:06:56.339Z,44.43
2019-01-18T13:09:29.452Z,41.27
2019-01-18T13:12:02.574Z,40.77
2019-01-18T13:14:35.681Z,42.87
2019-01-18T13:17:08.833Z,47.37
2019-01-18T13:19:42.056Z,43.77
2019-01-18T13:22:18.294Z,43.40
2019-01-18T13:24:51.475Z,48.43
2019-01-18T13:27:24.513Z,47.03
2019-01-18T13:29:57.782Z,42.23
2019-01-18T13:32:31.283Z,44.53
2019-01-18T13:35:05.039Z,46.23
2019-01-18T13:37:38.065Z,43.33
2019-01-18T13:40:19.228Z,45.50
2019-01-18T13:42:52.216Z,50.73
2019-01-18T13:45:26.209Z,46.80
2019-01-18T13:47:59.429Z,50.73
2019-01-18T13:50:32.328Z,50.23
2019-01-18T13:53:05.543Z,53.23
2019-01-18T13:55:38.704Z,56.07
2019-01-18T13:58:11.658Z,57.40
2019-01-18T14:00:44.841Z,49.90
2019-01-18T14:03:17.965Z,50.70
2019-01-18T14:05:51.045Z,82.00
2019-01-18T14:08:24.357Z,76.27
2019-01-18T14:10:57.593Z,78.43
2019-01-18T14:13:30.672Z,80.53
2019-01-18T14:16:04.022Z,82.93
2019-01-18T14:18:36.938Z,79.10
2019-01-18T14:21:09.942Z,71.33
2019-01-18T14:23:43.373Z,84.73
2019-01-18T14:26:16.789Z,84.27
2019-01-18T14:28:50.204Z,79.13
2019-01-18T14:31:23.326Z,98.37
2019-01-18T14:33:56.571Z,76.93
2019-01-18T14:36:29.600Z,73.87
2019-01-18T14:39:04.264Z,72.80
2019-01-18T14:41:37.290Z,72.17
2019-01-18T14:44:10.948Z,65.83
2019-01-18T14:46:44.187Z,81.80
2019-01-18T14:49:17.287Z,73.03
2019-01-18T14:51:50.338Z,72.13
2019-01-18T14:54:24.826Z,60.90
2019-01-18T14:56:57.777Z,61.17
2019-01-18T14:59:30.924Z,68.63
2019-01-18T15:02:05.587Z,69.53
2019-01-18T15:04:39.160Z,65.57
2019-01-18T15:07:12.296Z,72.97
2019-01-18T15:09:45.809Z,80.40
2019-01-18T15:12:19.266Z,87.03
2019-01-18T15:14:52.779Z,98.97
2019-01-18T15:17:25.784Z,91.27
2019-01-18T15:19:59.202Z,79.00
2019-01-18T15:22:32.894Z,76.57
2019-01-18T15:25:07.140Z,73.27
2019-01-18T15:27:41.501Z,71.77
2019-01-18T15:30:18.318Z,78.17
2019-01-18T15:32:51.586Z,71.43
2019-01-18T15:35:27.976Z,81.13
2019-01-18T15:38:01.662Z,70.57
2019-01-18T15:40:36.926Z,67.40
2019-01-18T15:43:11.224Z,96.70
2019-01-18T15:45:44.692Z,89.73
2019-01-18T15:48:18.997Z,83.53
2019-01-18T15:50:52.268Z,78.57
2019-01-18T15:53:25.725Z,79.10
2019-01-18T16:00:43.094Z,74.53
2019-01-18T16:03:16.577Z,74.27
2019-01-18T16:05:49.793Z,71.43
2019-01-18T16:08:23.345Z,71.73
2019-01-18T16:10:56.602Z,78.10
2019-01-18T16:13:31.272Z,84.47
2019-01-18T16:17:01.248Z,78.27
2019-01-18T16:19:34.275Z,93.87
2019-01-18T16:22:07.612Z,92.63
2019-01-18T16:24:41.129Z,86.73
2019-01-18T16:27:17.347Z,104.20
2019-01-18T16:29:50.416Z,92.43
2019-01-18T16:32:23.186Z,89.77
2019-01-18T16:34:56.125Z,92.70
2019-01-18T16:37:29.162Z,82.83
2019-01-18T16:40:02.263Z,92.10
2019-01-18T16:42:35.965Z,90.43
2019-01-18T16:45:10.189Z,80.97
2019-01-18T16:47:43.702Z,108.07
2019-01-18T16:50:17.110Z,79.80
2019-01-18T16:52:50.206Z,91.97
2019-01-18T16:55:23.175Z,99.90
2019-01-18T16:57:56.354Z,90.97
2019-01-18T17:00:34.272Z,89.83
2019-01-18T17:03:07.859Z,96.90
2019-01-18T17:05:41.086Z,104.30
2019-01-18T17:08:17.198Z,97.43
2019-01-18T17:10:51.819Z,83.23
2019-01-18T17:13:25.966Z,79.23
2019-01-18T17:15:59.333Z,93.37
2019-01-18T17:18:32.326Z,109.90
2019-01-18T17:21:05.680Z,104.83
2019-01-18T17:23:39.245Z,94.53
2019-01-18T17:26:12.643Z,94.77
2019-01-18T17:28:45.881Z,97.40
2019-01-18T17:31:19.362Z,95.73
2019-01-18T17:33:52.991Z,83.90
2019-01-18T17:36:39.201Z,86.57
2019-01-18T17:39:58.913Z,83.03
2019-01-18T17:43:26.384Z,77.73
2019-01-18T17:46:52.868Z,79.17
2019-01-18T17:50:30.796Z,80.77
2019-01-18T17:54:06.344Z,81.30
2019-01-18T17:57:50.395Z,74.07
2019-01-18T18:01:49.548Z,81.63
2019-01-18T18:05:10.917Z,80.60
2019-01-18T18:08:24.536Z,75.03
2019-01-18T18:11:53.112Z,66.63
2019-01-18T18:15:30.920Z,72.13
2019-01-18T18:18:46.739Z,62.67
2019-01-18T18:22:05.872Z,63.67
2019-01-18T18:25:27.627Z,92.70
2019-01-18T18:29:11.307Z,82.57
2019-01-18T18:32:39.984Z,62.80
2019-01-18T18:36:17.369Z,76.80
2019-01-18T18:39:45.988Z,89.60
2019-01-18T18:43:49.153Z,81.93
2019-01-18T18:47:05.457Z,62.93
2019-01-18T18:50:43.782Z,54.10
2019-01-18T18:54:01.044Z,55.77
2019-01-18T18:57:30.119Z,62.67
2019-01-18T19:01:04.611Z,73.00
2019-01-18T19:04:54.865Z,75.17
2019-01-18T19:08:35.723Z,67.60
2019-01-18T19:11:54.212Z,60.70
2019-01-18T19:14:58.257Z,79.90
2019-01-18T19:18:29.494Z,83.53
2019-01-18T19:21:55.557Z,78.63
2019-01-18T19:25:26.828Z,72.67
2019-01-18T19:28:51.991Z,94.17
2019-01-18T19:32:04.309Z,89.33
2019-01-18T19:35:52.001Z,91.33
2019-01-18T19:39:15.646Z,92.33
2019-01-18T19:42:40.937Z,88.23
2019-01-18T19:46:16.637Z,95.80
2019-01-18T19:49:24.065Z,81.33
2019-01-18T19:52:38.207Z,101.70
2019-01-18T19:55:45.176Z,92.60
2019-01-18T19:59:43.469Z,74.87
2019-01-18T20:03:02.788Z,78.97
2019-01-18T20:06:36.838Z,81.60
2019-01-18T20:09:46.471Z,76.43
2019-01-18T20:12:59.990Z,80.47
2019-01-18T20:16:18.089Z,81.93
2019-01-18T20:19:57.189Z,81.50
2019-01-18T20:23:30.315Z,103.37
2019-01-18T20:27:03.417Z,82.50
2019-01-18T20:30:41.203Z,67.60
2019-01-18T20:34:18.515Z,72.87
2019-01-18T20:37:35.460Z,70.13
2019-01-18T20:40:48.606Z,63.17
2019-01-18T20:43:52.445Z,59.87
2019-01-18T20:47:07.842Z,66.07
2019-01-18T20:50:07.262Z,61.57
2019-01-18T20:53:15.147Z,63.93
2019-01-18T20:56:49.433Z,64.83
2019-01-18T21:00:11.737Z,56.77
2019-01-18T21:03:55.869Z,52.40
2019-01-18T21:07:15.650Z,53.53
2019-01-18T21:10:41.276Z,51.27
2019-01-18T21:14:17.416Z,51.73
2019-01-18T21:17:49.229Z,46.03
2019-01-18T21:21:21.250Z,43.30
2019-01-18T21:25:07.673Z,49.17
2019-01-18T21:28:21.368Z,59.47
2019-01-18T21:31:34.958Z,54.90
2019-01-18T21:34:37.590Z,51.13
2019-01-18T21:38:06.583Z,52.63
2019-01-18T21:41:10.369Z,66.47
2019-01-18T21:45:00.608Z,63.63
2019-01-18T21:48:23.855Z,42.30
2019-01-18T21:51:50.386Z,43.33
2019-01-18T21:55:27.160Z,48.97
2019-01-18T21:58:57.048Z,49.70
2019-01-18T22:01:59.982Z,52.37
2019-01-18T22:04:50.293Z,53.63
2019-01-18T22:08:19.556Z,59.53
2019-01-18T22:11:23.572Z,58.30
2019-01-18T22:14:51.901Z,58.83
2019-01-18T22:18:04.973Z,71.83
2019-01-18T22:21:41.809Z,61.40
2019-01-18T22:25:23.970Z,66.37
2019-01-18T22:28:42.388Z,60.90
2019-01-18T22:32:32.997Z,53.47
2019-01-18T22:36:08.171Z,88.10
2019-01-18T22:39:18.196Z,54.93
2019-01-18T22:42:33.456Z,58.53
2019-01-18T22:45:46.756Z,63.37
2019-01-18T22:49:07.054Z,59.60
2019-01-18T22:52:19.052Z,61.53
2019-01-18T22:56:09.995Z,67.17
2019-01-18T22:59:38.249Z,73.90
2019-01-18T23:02:59.376Z,59.30
2019-01-18T23:06:10.403Z,53.13
2019-01-18T23:09:37.802Z,59.37
2019-01-18T23:12:54.129Z,64.77
2019-01-18T23:16:30.625Z,58.50
2019-01-18T23:19:44.994Z,60.60
2019-01-18T23:23:03.663Z,56.40
2019-01-18T23:26:06.350Z,56.83
2019-01-18T23:29:28.015Z,59.97
2019-01-18T23:33:02.787Z,57.83
2019-01-18T23:36:31.215Z,71.40
2019-01-18T23:40:11.303Z,68.43
2019-01-18T23:43:31.560Z,66.90
2019-01-18T23:46:39.333Z,76.23
2019-01-18T23:50:18.260Z,102.93
2019-01-18T23:53:18.560Z,82.20
2019-01-18T23:56:34.051Z,79.07
2019-01-18T23:59:32.113Z,86.77
